Time;durP1;ratioP1;P1;durP2;ratioP2;P2;SDS_P1;SDS_P2;PMS_P1;PMS_P2;Temp;Humidity;BMP_temperature;BMP_pressure;BME280_temperature;BME280_humidity;BME280_pressure;Samples;Min_cycle;Max_cycle;Signal;HPM_P1;HPM_P2
2021/09/20 00:00:53;;;;;;;12.85;9.50;;;16.00;99.90;;;;;;5067604;28;20104;-75
2021/09/20 00:03:19;;;;;;;15.48;9.75;;;15.90;99.90;;;;;;5058387;28;20123;-75
2021/09/20 00:05:44;;;;;;;13.80;9.77;;;15.80;99.90;;;;;;5065144;28;20021;-75
2021/09/20 00:08:10;;;;;;;12.65;9.18;;;15.70;99.90;;;;;;5071221;28;20030;-75
2021/09/20 00:10:37;;;;;;;16.70;9.43;;;15.70;99.90;;;;;;5072073;28;20028;-75
2021/09/20 00:13:03;;;;;;;12.73;9.20;;;15.70;99.90;;;;;;5075760;28;20530;-75
2021/09/20 00:15:28;;;;;;;16.25;9.60;;;15.80;99.90;;;;;;5074700;28;20052;-75
2021/09/20 00:17:54;;;;;;;14.73;10.40;;;15.90;99.90;;;;;;5076279;28;20111;-75
2021/09/20 00:20:19;;;;;;;15.82;11.13;;;15.90;99.90;;;;;;5076185;28;20500;-75
2021/09/20 00:22:45;;;;;;;15.23;10.23;;;15.80;99.90;;;;;;5070512;28;20032;-75
2021/09/20 00:25:12;;;;;;;15.63;10.95;;;15.80;99.90;;;;;;5067218;28;20039;-75
2021/09/20 00:27:38;;;;;;;17.58;11.43;;;15.70;99.90;;;;;;5063909;28;20040;-75
2021/09/20 00:30:06;;;;;;;14.20;10.73;;;15.80;99.90;;;;;;5072685;28;20028;-75
2021/09/20 00:32:32;;;;;;;12.75;9.32;;;15.80;99.90;;;;;;5073633;28;20439;-75
2021/09/20 00:34:58;;;;;;;16.00;11.05;;;15.80;99.90;;;;;;5076344;28;20040;-75
2021/09/20 00:37:23;;;;;;;14.82;10.45;;;15.50;99.90;;;;;;5070620;28;20078;-75
2021/09/20 00:39:49;;;;;;;14.60;9.85;;;15.60;99.90;;;;;;5075758;28;20052;-75
2021/09/20 00:42:14;;;;;;;16.05;10.23;;;15.60;99.90;;;;;;5069508;28;20111;-75
2021/09/20 00:44:40;;;;;;;15.23;10.15;;;15.50;99.90;;;;;;5070142;28;20107;-74
2021/09/20 00:47:06;;;;;;;16.42;10.13;;;15.60;99.90;;;;;;5074071;28;20020;-74
2021/09/20 00:49:32;;;;;;;15.43;10.32;;;15.50;99.90;;;;;;5072310;28;20108;-75
2021/09/20 00:51:58;;;;;;;14.38;9.77;;;15.50;99.90;;;;;;5071819;28;20592;-75
2021/09/20 00:54:23;;;;;;;13.85;9.43;;;15.40;99.90;;;;;;5066891;28;20044;-75
2021/09/20 00:56:50;;;;;;;14.82;10.35;;;15.40;99.90;;;;;;5071247;28;20060;-75
2021/09/20 00:59:17;;;;;;;15.60;10.88;;;15.40;99.90;;;;;;5067604;28;20642;-76
2021/09/20 01:01:44;;;;;;;14.82;10.05;;;15.40;99.90;;;;;;5073167;28;20028;-75
2021/09/20 01:04:10;;;;;;;14.30;9.75;;;15.40;99.90;;;;;;5066705;28;20054;-75
2021/09/20 01:06:35;;;;;;;13.75;9.77;;;15.30;99.90;;;;;;5073103;28;20060;-75
2021/09/20 01:09:01;;;;;;;16.10;10.25;;;15.40;99.90;;;;;;5069910;28;20021;-75
2021/09/20 01:11:27;;;;;;;13.65;9.30;;;15.40;99.90;;;;;;5067876;28;20025;-75
2021/09/20 01:13:53;;;;;;;14.10;9.48;;;15.30;99.90;;;;;;5068402;28;20055;-75
2021/09/20 01:16:18;;;;;;;14.18;10.63;;;15.40;99.90;;;;;;5070818;28;20104;-75
2021/09/20 01:18:44;;;;;;;12.43;9.10;;;15.30;99.90;;;;;;5071301;28;20093;-75
2021/09/20 01:21:13;;;;;;;11.93;9.15;;;15.30;99.90;;;;;;5070680;28;20032;-75
2021/09/20 01:23:39;;;;;;;13.77;10.10;;;15.30;99.90;;;;;;5069086;28;20504;-75
2021/09/20 01:26:05;;;;;;;11.15;8.88;;;15.20;99.90;;;;;;5071960;28;20036;-75
2021/09/20 01:28:30;;;;;;;18.40;9.05;;;15.20;99.90;;;;;;5069005;28;20032;-75
2021/09/20 01:30:56;;;;;;;13.35;10.10;;;15.30;99.90;;;;;;5067787;28;20107;-75
2021/09/20 01:33:22;;;;;;;14.55;10.20;;;15.20;99.90;;;;;;5069660;28;20017;-75
2021/09/20 01:35:47;;;;;;;12.65;9.50;;;15.30;99.90;;;;;;5070424;28;20404;-75
2021/09/20 01:38:13;;;;;;;12.77;9.38;;;15.20;99.90;;;;;;5068737;28;20169;-75
2021/09/20 01:40:38;;;;;;;14.30;10.07;;;15.10;99.90;;;;;;5072260;28;20094;-75
2021/09/20 01:43:04;;;;;;;10.80;9.38;;;15.20;99.90;;;;;;5068584;28;20024;-75
2021/09/20 01:45:30;;;;;;;15.98;9.55;;;15.20;99.90;;;;;;5063988;28;20036;-75
2021/09/20 01:47:56;;;;;;;13.57;9.85;;;15.20;99.90;;;;;;5073942;28;20024;-75
2021/09/20 01:50:21;;;;;;;13.30;9.27;;;15.20;99.90;;;;;;5067068;28;20043;-75
2021/09/20 01:52:47;;;;;;;17.75;9.48;;;15.10;99.90;;;;;;5069438;28;20025;-75
2021/09/20 01:55:13;;;;;;;15.48;10.38;;;15.10;99.90;;;;;;5074636;28;20035;-75
2021/09/20 01:57:40;;;;;;;14.05;9.38;;;15.00;99.90;;;;;;5070451;28;20089;-76
2021/09/20 02:00:08;;;;;;;12.52;9.02;;;15.00;99.90;;;;;;5074966;28;20027;-76
2021/09/20 02:02:34;;;;;;;14.65;9.98;;;15.00;99.90;;;;;;5077977;28;20024;-75
2021/09/20 02:05:00;;;;;;;13.88;9.10;;;14.80;99.90;;;;;;5072604;28;20430;-75
2021/09/20 02:07:25;;;;;;;13.63;10.23;;;14.80;99.90;;;;;;5073962;28;20013;-75
2021/09/20 02:09:51;;;;;;;14.63;10.73;;;14.80;99.90;;;;;;5071784;28;20032;-75
2021/09/20 02:12:17;;;;;;;14.20;9.50;;;14.80;99.90;;;;;;5078931;28;20024;-75
2021/09/20 02:14:42;;;;;;;14.15;10.50;;;14.70;99.90;;;;;;5076680;28;20477;-75
2021/09/20 02:17:08;;;;;;;12.27;9.38;;;14.80;99.90;;;;;;5079186;28;20021;-75
2021/09/20 02:19:33;;;;;;;13.85;9.98;;;14.70;99.90;;;;;;5075236;28;20515;-75
2021/09/20 02:21:59;;;;;;;15.95;12.18;;;14.80;99.90;;;;;;5078766;28;20028;-75
2021/09/20 02:24:26;;;;;;;18.65;13.25;;;14.70;99.90;;;;;;5070849;28;20452;-75
2021/09/20 02:26:52;;;;;;;20.58;12.23;;;14.60;99.90;;;;;;5077627;28;20385;-75
2021/09/20 02:29:18;;;;;;;20.52;10.70;;;14.50;99.90;;;;;;5070280;28;20032;-75
2021/09/20 02:31:43;;;;;;;17.30;11.38;;;14.50;99.90;;;;;;5078433;28;20086;-75
2021/09/20 02:34:09;;;;;;;15.45;10.70;;;14.50;99.90;;;;;;5074949;28;20039;-75
2021/09/20 02:36:35;;;;;;;18.13;11.27;;;14.50;99.90;;;;;;5073774;28;20024;-75
2021/09/20 02:39:00;;;;;;;15.20;11.68;;;14.60;99.90;;;;;;5074394;28;20059;-75
2021/09/20 02:41:26;;;;;;;16.92;11.60;;;14.60;99.90;;;;;;5076041;28;20044;-75
2021/09/20 02:43:52;;;;;;;14.80;11.27;;;14.50;99.90;;;;;;5073979;28;20098;-75
2021/09/20 02:46:18;;;;;;;21.92;13.00;;;14.50;99.90;;;;;;5076950;28;20024;-75
2021/09/20 02:48:43;;;;;;;15.88;11.93;;;14.40;99.90;;;;;;5072802;28;20101;-75
2021/09/20 02:51:09;;;;;;;16.80;12.25;;;14.30;99.90;;;;;;5075900;28;20112;-75
2021/09/20 02:53:35;;;;;;;17.35;12.57;;;14.40;99.90;;;;;;5071670;28;20028;-75
2021/09/20 02:56:02;;;;;;;20.40;12.88;;;14.40;99.90;;;;;;5077847;28;20534;-75
2021/09/20 02:58:28;;;;;;;17.20;11.90;;;14.30;99.90;;;;;;5069950;28;20029;-75
2021/09/20 03:00:53;;;;;;;17.02;12.85;;;14.40;99.90;;;;;;5078112;28;20047;-75
2021/09/20 03:03:19;;;;;;;18.40;12.00;;;14.40;99.90;;;;;;5074835;28;20020;-75
2021/09/20 03:05:45;;;;;;;16.50;12.23;;;14.40;99.90;;;;;;5071634;28;20035;-75
2021/09/20 03:08:11;;;;;;;18.52;11.82;;;14.30;99.90;;;;;;5074316;28;20507;-75
2021/09/20 03:10:37;;;;;;;17.50;13.10;;;14.40;99.90;;;;;;5070843;28;20409;-75
2021/09/20 03:13:03;;;;;;;16.83;12.88;;;14.40;99.90;;;;;;5073693;28;20032;-75
2021/09/20 03:15:29;;;;;;;16.88;12.07;;;14.40;99.90;;;;;;5070866;28;20044;-75
2021/09/20 03:17:54;;;;;;;16.90;12.38;;;14.30;99.90;;;;;;5076068;28;20025;-75
2021/09/20 03:20:20;;;;;;;18.13;13.00;;;14.30;99.90;;;;;;5070143;28;20158;-75
2021/09/20 03:22:46;;;;;;;17.55;12.05;;;14.30;99.90;;;;;;5077917;28;20040;-75
2021/09/20 03:25:13;;;;;;;16.88;12.90;;;14.40;99.90;;;;;;5069422;28;20062;-75
2021/09/20 03:27:39;;;;;;;17.83;11.70;;;14.40;99.90;;;;;;5070394;28;20035;-75
2021/09/20 03:30:07;;;;;;;18.83;11.27;;;14.50;99.90;;;;;;5072887;28;20104;-75
2021/09/20 03:32:33;;;;;;;17.75;12.13;;;14.40;99.90;;;;;;5076304;28;20132;-75
2021/09/20 03:34:59;;;;;;;16.35;11.82;;;14.40;99.90;;;;;;5071625;28;20067;-75
2021/09/20 03:37:25;;;;;;;15.95;11.70;;;14.30;99.90;;;;;;5078416;28;20056;-75
2021/09/20 03:39:50;;;;;;;17.05;12.85;;;14.40;99.90;;;;;;5070794;28;20801;-75
2021/09/20 03:42:16;;;;;;;15.90;12.23;;;14.40;99.90;;;;;;5077209;28;20037;-75
2021/09/20 03:44:42;;;;;;;21.85;13.23;;;14.40;99.90;;;;;;5079600;28;20433;-75
2021/09/20 03:47:08;;;;;;;15.82;12.02;;;14.30;99.90;;;;;;5075297;28;20024;-75
2021/09/20 03:49:33;;;;;;;20.30;12.73;;;14.30;99.90;;;;;;5076791;28;20365;-75
2021/09/20 03:51:59;;;;;;;20.23;13.05;;;14.40;99.90;;;;;;5075921;28;20103;-75
2021/09/20 03:54:25;;;;;;;20.23;13.23;;;14.30;99.90;;;;;;5078553;28;20056;-75
2021/09/20 03:56:51;;;;;;;19.27;13.23;;;14.30;99.90;;;;;;5073938;28;20137;-75
2021/09/20 03:59:16;;;;;;;19.90;12.48;;;14.20;99.90;;;;;;5080991;28;20028;-75
2021/09/20 04:01:42;;;;;;;21.65;14.55;;;14.20;99.90;;;;;;5075918;28;20439;-75
2021/09/20 04:04:07;;;;;;;18.08;12.90;;;14.20;99.90;;;;;;5078453;28;20100;-75
2021/09/20 04:06:33;;;;;;;21.80;13.77;;;14.20;99.90;;;;;;5074665;28;20469;-75
2021/09/20 04:09:00;;;;;;;20.27;12.73;;;14.10;99.90;;;;;;5075876;28;20138;-75
2021/09/20 04:11:26;;;;;;;21.65;13.65;;;14.10;99.90;;;;;;5075623;28;20464;-75
2021/09/20 04:13:52;;;;;;;22.75;13.95;;;14.10;99.90;;;;;;5077813;28;20024;-75
2021/09/20 04:16:18;;;;;;;18.27;11.63;;;14.10;99.90;;;;;;5075890;28;20101;-75
2021/09/20 04:18:43;;;;;;;21.13;13.73;;;14.00;99.90;;;;;;5074661;28;20028;-75
2021/09/20 04:21:09;;;;;;;20.85;14.88;;;14.00;99.90;;;;;;5073844;28;20025;-75
2021/09/20 04:23:35;;;;;;;20.88;13.82;;;14.00;99.90;;;;;;5079362;28;20162;-75
2021/09/20 04:26:00;;;;;;;21.27;13.65;;;14.00;99.90;;;;;;5073149;28;20085;-75
2021/09/20 04:28:26;;;;;;;23.10;15.25;;;13.80;99.90;;;;;;5078731;28;20040;-75
2021/09/20 04:30:52;;;;;;;20.27;14.13;;;13.90;99.90;;;;;;5077005;28;20103;-75
2021/09/20 04:33:20;;;;;;;20.20;13.77;;;13.90;99.90;;;;;;5077320;28;20039;-75
2021/09/20 04:35:46;;;;;;;23.85;14.82;;;13.90;99.90;;;;;;5072766;28;20125;-75
2021/09/20 04:38:13;;;;;;;19.73;14.05;;;13.80;99.90;;;;;;5076027;28;20315;-75
2021/09/20 04:40:39;;;;;;;22.05;15.35;;;13.80;99.90;;;;;;5077798;28;20035;-75
2021/09/20 04:43:07;;;;;;;20.08;14.80;;;13.70;99.90;;;;;;5074510;28;20495;-75
2021/09/20 04:45:33;;;;;;;20.00;14.20;;;13.70;99.90;;;;;;5078986;28;20031;-75
2021/09/20 04:47:59;;;;;;;19.10;13.02;;;13.70;99.90;;;;;;5074792;28;20027;-76
2021/09/20 04:50:24;;;;;;;22.58;14.45;;;13.70;99.90;;;;;;5076647;28;20468;-75
2021/09/20 04:52:50;;;;;;;24.08;15.35;;;13.70;99.90;;;;;;5071660;28;20077;-75
2021/09/20 04:55:16;;;;;;;22.63;12.88;;;13.70;99.90;;;;;;5078027;28;20040;-75
2021/09/20 04:57:42;;;;;;;19.95;13.95;;;13.70;99.90;;;;;;5073319;28;20435;-75
2021/09/20 05:00:09;;;;;;;23.42;15.02;;;13.70;99.90;;;;;;5077965;28;20115;-75
2021/09/20 05:02:35;;;;;;;22.80;14.73;;;13.80;99.90;;;;;;5074529;28;20021;-75
2021/09/20 05:05:00;;;;;;;20.85;14.27;;;13.70;99.90;;;;;;5074658;28;20032;-75
2021/09/20 05:07:26;;;;;;;21.48;15.05;;;13.70;99.90;;;;;;5077031;28;20017;-75
2021/09/20 05:09:52;;;;;;;20.13;14.15;;;13.60;99.90;;;;;;5078961;28;20451;-75
2021/09/20 05:12:19;;;;;;;25.02;15.10;;;13.60;99.90;;;;;;5081089;28;20024;-75
2021/09/20 05:14:44;;;;;;;21.13;14.38;;;13.60;99.90;;;;;;5075502;28;20040;-75
2021/09/20 05:17:11;;;;;;;21.38;13.63;;;13.60;99.90;;;;;;5078610;28;20384;-75
2021/09/20 05:19:37;;;;;;;21.58;15.15;;;13.60;99.90;;;;;;5077841;28;20102;-75
2021/09/20 05:22:03;;;;;;;20.83;14.63;;;13.50;99.90;;;;;;5080090;28;20465;-75
2021/09/20 05:24:28;;;;;;;20.80;14.82;;;13.40;99.90;;;;;;5074954;28;20041;-75
2021/09/20 05:26:54;;;;;;;20.80;13.95;;;13.30;99.90;;;;;;5079032;28;20040;-75
2021/09/20 05:29:20;;;;;;;19.10;13.98;;;13.30;99.90;;;;;;5075772;28;20137;-75
2021/09/20 05:31:45;;;;;;;21.27;14.63;;;13.20;99.90;;;;;;5065002;28;20078;-75
2021/09/20 05:34:11;;;;;;;20.88;15.30;;;13.20;99.90;;;;;;5068768;28;20028;-75
2021/09/20 05:36:37;;;;;;;26.25;15.02;;;13.30;99.90;;;;;;5069176;28;20412;-75
2021/09/20 05:39:03;;;;;;;22.25;14.98;;;13.30;99.90;;;;;;5072461;28;20473;-74
2021/09/20 05:41:28;;;;;;;22.45;14.07;;;13.30;99.90;;;;;;5079819;28;20047;-75
2021/09/20 05:43:54;;;;;;;21.73;15.13;;;13.30;99.90;;;;;;5076857;28;20035;-75
2021/09/20 05:46:20;;;;;;;20.58;13.95;;;13.30;99.90;;;;;;5073718;28;20507;-75
2021/09/20 05:48:45;;;;;;;21.38;15.23;;;13.30;99.90;;;;;;5077341;28;20170;-75
2021/09/20 05:51:11;;;;;;;24.95;15.48;;;13.20;99.90;;;;;;5073417;28;20020;-75
2021/09/20 05:53:37;;;;;;;21.95;14.98;;;13.30;99.90;;;;;;5073167;28;20402;-75
2021/09/20 05:56:04;;;;;;;22.08;13.13;;;13.30;99.90;;;;;;5069162;28;20247;-75
2021/09/20 05:58:29;;;;;;;21.38;14.57;;;13.20;99.90;;;;;;5072456;28;20036;-75
2021/09/20 06:00:55;;;;;;;22.67;14.80;;;13.20;99.90;;;;;;5071348;28;20078;-75
2021/09/20 06:03:21;;;;;;;23.85;14.82;;;13.20;99.90;;;;;;5076578;28;20031;-75
2021/09/20 06:05:47;;;;;;;19.10;14.60;;;13.20;99.90;;;;;;5073985;28;20025;-75
2021/09/20 06:08:13;;;;;;;21.05;15.55;;;13.30;99.90;;;;;;5074414;28;20021;-76
2021/09/20 06:10:39;;;;;;;18.98;13.88;;;13.20;99.90;;;;;;5073813;28;20411;-75
2021/09/20 06:13:07;;;;;;;23.65;14.32;;;13.30;99.90;;;;;;5069232;28;20110;-76
2021/09/20 06:15:34;;;;;;;23.08;15.30;;;13.20;99.90;;;;;;5070160;28;20124;-76
2021/09/20 06:18:00;;;;;;;24.52;15.40;;;13.20;99.90;;;;;;5070949;28;20480;-76
2021/09/20 06:20:25;;;;;;;25.48;14.75;;;13.20;99.90;;;;;;5072564;28;20362;-78
2021/09/20 06:22:51;;;;;;;21.65;14.82;;;13.30;99.90;;;;;;5075058;28;20059;-78
2021/09/20 06:25:17;;;;;;;22.40;13.30;;;13.30;99.90;;;;;;5074282;28;20036;-78
2021/09/20 06:27:43;;;;;;;23.10;14.52;;;13.30;99.90;;;;;;5069990;28;20029;-76
2021/09/20 06:30:11;;;;;;;23.20;14.70;;;13.30;99.90;;;;;;5071072;28;20029;-76
2021/09/20 06:32:37;;;;;;;21.13;14.27;;;13.30;99.90;;;;;;5061524;28;20046;-75
2021/09/20 06:35:04;;;;;;;23.90;14.52;;;13.30;99.90;;;;;;5063555;28;20084;-77
2021/09/20 06:37:30;;;;;;;19.27;13.30;;;13.30;99.90;;;;;;5062609;28;20465;-79
2021/09/20 06:39:55;;;;;;;18.98;13.60;;;13.30;99.90;;;;;;5062883;28;20040;-79
2021/09/20 06:42:21;;;;;;;20.13;13.18;;;13.30;99.90;;;;;;5072088;28;20028;-77
2021/09/20 06:44:50;;;;;;;21.67;14.30;;;13.20;99.90;;;;;;5078084;28;20032;-77
2021/09/20 06:47:17;;;;;;;20.90;14.38;;;13.30;99.90;;;;;;5079380;28;20443;-77
2021/09/20 06:49:43;;;;;;;21.08;14.27;;;13.30;99.90;;;;;;5074239;28;20155;-77
2021/09/20 06:52:09;;;;;;;19.58;13.68;;;13.30;99.90;;;;;;5071567;28;20095;-77
2021/09/20 06:54:35;;;;;;;21.25;14.52;;;13.30;99.90;;;;;;5067530;28;20049;-77
2021/09/20 06:57:00;;;;;;;19.77;13.65;;;13.30;99.90;;;;;;5065266;28;20033;-77
2021/09/20 06:59:26;;;;;;;22.50;14.60;;;13.40;99.90;;;;;;5075496;28;20029;-76
2021/09/20 07:01:52;;;;;;;22.58;15.57;;;13.30;99.90;;;;;;5075174;28;20035;-77
2021/09/20 07:04:17;;;;;;;22.98;15.13;;;13.30;99.90;;;;;;5074151;28;20013;-77
2021/09/20 07:06:45;;;;;;;19.83;13.90;;;13.30;99.90;;;;;;5075058;28;20447;-77
2021/09/20 07:09:11;;;;;;;22.42;14.30;;;13.30;99.90;;;;;;5068250;28;20013;-76
2021/09/20 07:11:37;;;;;;;23.77;15.02;;;13.40;99.90;;;;;;5069309;28;20028;-76
2021/09/20 07:14:03;;;;;;;20.50;14.90;;;13.50;99.90;;;;;;5071010;28;20032;-77
2021/09/20 07:16:29;;;;;;;23.23;15.82;;;13.40;99.90;;;;;;5070446;28;20376;-76
2021/09/20 07:18:55;;;;;;;22.25;14.80;;;13.50;99.90;;;;;;5074185;28;20070;-77
2021/09/20 07:21:23;;;;;;;22.55;16.02;;;13.50;99.90;;;;;;5075038;28;20071;-77
2021/09/20 07:23:54;;;;;;;22.63;16.25;;;13.50;99.90;;;;;;5064776;28;20064;-75
2021/09/20 07:26:20;;;;;;;23.25;15.25;;;13.60;99.90;;;;;;5086601;28;20052;-75
2021/09/20 07:28:46;;;;;;;21.80;15.32;;;13.60;99.90;;;;;;5074325;28;20078;-75
2021/09/20 07:31:12;;;;;;;25.40;16.33;;;13.60;99.90;;;;;;5070414;28;20028;-75
2021/09/20 07:33:38;;;;;;;21.65;14.55;;;13.60;99.90;;;;;;5069863;28;20017;-75
2021/09/20 07:36:04;;;;;;;21.92;14.88;;;13.60;99.90;;;;;;5078878;28;20035;-75
2021/09/20 07:38:30;;;;;;;21.90;15.23;;;13.60;99.90;;;;;;5075266;28;20379;-75
2021/09/20 07:40:55;;;;;;;19.67;14.70;;;13.60;99.90;;;;;;5078412;28;20021;-75
2021/09/20 07:43:21;;;;;;;23.38;15.52;;;13.60;99.90;;;;;;5074858;28;20024;-75
2021/09/20 07:45:47;;;;;;;23.98;15.80;;;13.80;99.90;;;;;;5074882;28;20020;-75
2021/09/20 07:48:12;;;;;;;22.65;15.07;;;13.70;99.90;;;;;;5075321;28;20366;-75
2021/09/20 07:50:38;;;;;;;21.65;14.63;;;13.90;99.90;;;;;;5070329;28;20032;-75
2021/09/20 07:53:04;;;;;;;24.75;15.65;;;13.90;99.90;;;;;;5070877;28;20074;-75
2021/09/20 07:55:35;;;;;;;22.33;15.30;;;13.90;99.90;;;;;;5081881;28;20167;-75
2021/09/20 07:58:08;;;;;;;25.38;15.90;;;14.00;99.90;;;;;;5072751;28;20028;-75
2021/09/20 08:00:35;;;;;;;21.30;16.02;;;14.00;99.90;;;;;;5068024;28;20104;-75
2021/09/20 08:03:01;;;;;;;24.27;16.08;;;14.10;99.90;;;;;;5072354;28;20054;-75
2021/09/20 08:05:27;;;;;;;23.70;16.27;;;14.10;99.90;;;;;;5075448;28;20024;-75
2021/09/20 08:07:53;;;;;;;22.50;16.67;;;14.10;99.90;;;;;;5072645;28;20370;-75
2021/09/20 08:10:19;;;;;;;21.65;16.27;;;14.20;99.90;;;;;;5072144;28;20134;-75
2021/09/20 08:12:45;;;;;;;24.40;16.60;;;14.30;99.90;;;;;;5071953;28;20044;-75
2021/09/20 08:15:11;;;;;;;21.95;16.02;;;14.30;99.90;;;;;;5068458;28;20048;-75
2021/09/20 08:17:37;;;;;;;24.63;15.82;;;14.30;99.90;;;;;;5070241;28;20029;-75
2021/09/20 08:20:07;;;;;;;20.98;14.95;;;14.40;99.90;;;;;;5078137;28;20063;-75
2021/09/20 08:22:33;;;;;;;20.73;15.35;;;14.50;99.90;;;;;;5076653;28;20031;-75
2021/09/20 08:24:59;;;;;;;21.38;15.88;;;14.50;99.90;;;;;;5076093;28;20027;-75
2021/09/20 08:27:26;;;;;;;23.55;17.25;;;14.60;99.90;;;;;;5077026;28;20035;-75
2021/09/20 08:29:52;;;;;;;22.05;14.90;;;14.70;99.90;;;;;;5072513;28;20484;-75
2021/09/20 08:32:18;;;;;;;19.90;15.25;;;14.70;99.90;;;;;;5068569;28;20027;-74
2021/09/20 08:34:44;;;;;;;25.75;16.10;;;14.80;99.90;;;;;;5070188;28;20043;-75
2021/09/20 08:37:10;;;;;;;25.02;15.38;;;14.90;99.90;;;;;;5048852;28;20025;-75
2021/09/20 08:39:37;;;;;;;22.80;14.48;;;15.00;99.90;;;;;;5070763;28;20078;-75
2021/09/20 08:42:03;;;;;;;20.65;14.93;;;15.00;99.90;;;;;;5063195;28;20016;-74
2021/09/20 08:44:29;;;;;;;21.58;15.00;;;15.00;99.90;;;;;;5080653;28;20068;-76
2021/09/20 08:46:55;;;;;;;21.92;15.13;;;15.00;99.90;;;;;;5063965;28;20063;-75
2021/09/20 08:49:23;;;;;;;20.58;14.68;;;15.10;99.90;;;;;;5079469;28;20370;-75
2021/09/20 08:51:54;;;;;;;17.33;13.43;;;15.10;99.90;;;;;;5066888;28;20021;-76
2021/09/20 08:54:25;;;;;;;19.60;14.27;;;15.30;99.90;;;;;;5078299;28;20115;-75
2021/09/20 08:56:51;;;;;;;23.25;15.20;;;15.30;99.90;;;;;;5070238;28;20036;-75
2021/09/20 08:59:18;;;;;;;23.02;15.02;;;15.40;99.90;;;;;;5075887;28;20016;-75
2021/09/20 09:01:48;;;;;;;22.95;15.57;;;15.40;99.90;;;;;;5063322;28;20028;-75
2021/09/20 09:04:30;;;;;;;21.88;15.32;;;15.60;99.90;;;;;;5075485;28;20017;-74
2021/09/20 09:07:06;;;;;;;22.83;15.30;;;15.60;99.90;;;;;;5074895;28;20070;-76
2021/09/20 09:09:35;;;;;;;21.23;15.38;;;15.60;99.90;;;;;;5075758;28;20032;-76
2021/09/20 09:12:18;;;;;;;23.35;15.32;;;15.70;99.90;;;;;;5077690;28;20024;-76
2021/09/20 09:14:43;;;;;;;25.08;16.60;;;15.70;99.90;;;;;;5072948;28;20119;-75
2021/09/20 09:17:13;;;;;;;21.00;15.40;;;15.80;99.90;;;;;;5076011;28;20107;-75
2021/09/20 09:19:44;;;;;;;23.80;16.70;;;15.90;99.90;;;;;;5072183;28;20020;-76
2021/09/20 09:22:10;;;;;;;17.67;13.85;;;16.00;99.90;;;;;;5078043;28;20027;-75
2021/09/20 09:24:35;;;;;;;20.60;15.32;;;16.10;99.90;;;;;;5077302;28;20024;-76
2021/09/20 09:27:03;;;;;;;22.35;14.85;;;16.30;99.90;;;;;;5071929;28;20451;-75
2021/09/20 09:29:30;;;;;;;21.05;15.75;;;16.40;99.90;;;;;;5081515;28;20072;-75
2021/09/20 09:31:59;;;;;;;20.65;15.30;;;16.50;99.90;;;;;;5069545;28;20044;-75
2021/09/20 09:34:28;;;;;;;20.00;15.73;;;16.60;99.90;;;;;;5078194;28;20107;-75
2021/09/20 09:37:14;;;;;;;22.88;17.38;;;16.80;99.90;;;;;;5070913;28;20024;-75
2021/09/20 09:39:40;;;;;;;18.80;14.73;;;16.70;99.90;;;;;;5073801;28;20024;-74
2021/09/20 09:42:29;;;;;;;20.60;15.68;;;16.90;99.90;;;;;;5069956;28;20048;-75
2021/09/20 09:44:56;;;;;;;20.10;15.57;;;17.00;99.90;;;;;;5077645;28;20035;-75
2021/09/20 09:47:30;;;;;;;24.13;16.58;;;17.20;99.90;;;;;;5073387;28;20020;-75
2021/09/20 09:50:23;;;;;;;21.88;17.08;;;17.20;99.90;;;;;;5075819;28;20107;-76
2021/09/20 09:52:52;;;;;;;22.48;18.20;;;17.30;99.90;;;;;;5080801;28;20024;-76
2021/09/20 09:55:19;;;;;;;20.67;15.38;;;17.50;99.90;;;;;;5068755;28;20031;-76
2021/09/20 09:57:45;;;;;;;20.73;16.33;;;17.50;99.90;;;;;;5076482;28;20399;-76
2021/09/20 10:00:16;;;;;;;19.08;14.75;;;17.70;99.90;;;;;;5071106;28;20028;-75
2021/09/20 10:02:47;;;;;;;21.63;15.68;;;17.70;99.90;;;;;;5074172;28;20123;-75
2021/09/20 10:05:16;;;;;;;19.73;15.57;;;17.80;99.90;;;;;;5074991;28;20026;-76
2021/09/20 10:07:44;;;;;;;19.65;14.63;;;18.00;99.90;;;;;;5076653;28;20044;-75
2021/09/20 10:10:16;;;;;;;20.95;15.38;;;18.20;99.90;;;;;;5078574;28;20075;-74
2021/09/20 10:12:45;;;;;;;21.65;14.55;;;18.00;99.90;;;;;;5071414;28;20024;-75
2021/09/20 10:15:13;;;;;;;19.73;14.50;;;17.80;99.90;;;;;;5075863;28;20541;-75
2021/09/20 10:17:39;;;;;;;20.02;15.10;;;17.90;99.90;;;;;;5070931;28;20039;-75
2021/09/20 10:20:07;;;;;;;19.83;15.73;;;18.20;99.90;;;;;;5077396;28;20028;-75
2021/09/20 10:22:33;;;;;;;21.75;15.15;;;18.40;99.90;;;;;;5073347;28;20088;-75
2021/09/20 10:25:00;;;;;;;21.73;14.82;;;18.50;99.90;;;;;;5074537;28;20112;-76
2021/09/20 10:27:28;;;;;;;24.23;14.98;;;18.50;99.90;;;;;;5063668;28;20023;-77
2021/09/20 10:30:01;;;;;;;20.50;14.60;;;18.60;99.90;;;;;;5074775;28;20020;-76
2021/09/20 10:32:28;;;;;;;16.15;13.13;;;18.70;99.90;;;;;;5076840;28;20058;-77
2021/09/20 10:35:22;;;;;;;17.88;13.30;;;18.80;99.90;;;;;;5071204;28;20036;-78
2021/09/20 10:37:48;;;;;;;15.73;11.90;;;18.70;99.90;;;;;;5068781;28;20104;-76
2021/09/20 10:40:14;;;;;;;14.18;12.20;;;18.80;99.90;;;;;;5072644;28;20104;-75
2021/09/20 10:42:52;;;;;;;17.10;12.60;;;18.60;99.90;;;;;;5081377;28;20413;-75
2021/09/20 10:45:36;;;;;;;17.20;12.52;;;18.80;99.90;;;;;;5073704;28;20555;-76
2021/09/20 10:48:30;;;;;;;17.92;13.02;;;18.80;99.90;;;;;;5067598;28;20103;-77
2021/09/20 10:51:21;;;;;;;17.65;11.60;;;19.00;99.90;;;;;;5075748;28;20499;-76
2021/09/20 10:53:48;;;;;;;15.70;12.05;;;19.10;99.90;;;;;;5064878;28;20479;-76
2021/09/20 10:56:19;;;;;;;14.63;11.57;;;19.10;99.90;;;;;;5066422;28;20024;-76
2021/09/20 10:58:54;;;;;;;14.07;11.73;;;19.20;99.90;;;;;;5066927;28;20101;-74
2021/09/20 11:01:19;;;;;;;13.30;11.00;;;19.30;99.90;;;;;;5072660;28;20157;-75
2021/09/20 11:03:49;;;;;;;13.98;11.07;;;19.20;99.90;;;;;;5076500;28;20522;-77
2021/09/20 11:06:26;;;;;;;13.07;9.65;;;19.10;99.90;;;;;;5066036;28;20519;-75
2021/09/20 11:08:57;;;;;;;13.40;10.60;;;19.20;99.90;;;;;;5073255;28;20029;-76
2021/09/20 11:14:06;;;;;;;13.68;8.88;;;19.50;99.90;;;;;;5075685;28;20023;-75
2021/09/20 11:16:59;;;;;;;15.18;10.40;;;19.70;99.90;;;;;;5066313;28;20571;-75
2021/09/20 11:19:24;;;;;;;12.88;10.27;;;19.60;99.90;;;;;;5062404;28;20017;-76
2021/09/20 11:22:12;;;;;;;13.43;9.90;;;19.80;99.90;;;;;;5070082;28;20391;-74
2021/09/20 11:24:48;;;;;;;12.13;10.10;;;19.60;99.90;;;;;;5063726;28;20223;-75
2021/09/20 11:27:38;;;;;;;14.88;11.77;;;19.40;99.90;;;;;;5068886;28;20021;-74
2021/09/20 11:30:14;;;;;;;11.38;9.48;;;19.70;99.90;;;;;;5083046;28;20045;-75
2021/09/20 11:32:51;;;;;;;15.20;11.63;;;19.90;99.90;;;;;;5068883;28;20039;-74
2021/09/20 11:35:17;;;;;;;14.55;10.93;;;19.90;99.90;;;;;;5072092;28;20077;-74
2021/09/20 11:37:43;;;;;;;13.65;9.90;;;19.50;99.90;;;;;;5065386;28;20058;-75
2021/09/20 11:40:13;;;;;;;12.43;11.13;;;19.30;99.90;;;;;;5066877;28;20036;-75
2021/09/20 11:42:38;;;;;;;11.75;10.15;;;19.10;99.90;;;;;;5073724;28;20032;-75
2021/09/20 11:45:09;;;;;;;14.20;10.57;;;19.20;99.90;;;;;;5065459;28;20032;-74
2021/09/20 11:47:39;;;;;;;12.13;10.18;;;19.40;99.90;;;;;;5064807;28;20121;-76
2021/09/20 11:50:19;;;;;;;12.43;9.65;;;20.00;99.90;;;;;;5078818;28;20442;-78
2021/09/20 11:53:13;;;;;;;14.25;10.00;;;20.10;99.90;;;;;;5074578;28;20090;-81
2021/09/20 11:55:45;;;;;;;11.85;10.60;;;20.40;99.90;;;;;;5058799;28;20076;-77
2021/09/20 11:58:13;;;;;;;14.27;10.85;;;20.20;99.90;;;;;;5066765;28;20028;-76
2021/09/20 12:00:43;;;;;;;10.73;9.35;;;20.00;99.90;;;;;;5063557;28;20024;-76
2021/09/20 12:03:13;;;;;;;12.02;9.88;;;19.70;99.90;;;;;;5071444;28;20101;-77
2021/09/20 12:05:41;;;;;;;11.77;9.90;;;19.60;99.90;;;;;;5072206;28;20031;-76
2021/09/20 12:08:14;;;;;;;10.43;9.32;;;19.60;99.90;;;;;;5070406;28;20069;-77
2021/09/20 12:10:52;;;;;;;13.65;9.95;;;19.40;99.90;;;;;;5071316;28;20021;-78
2021/09/20 12:13:25;;;;;;;11.32;10.13;;;19.40;99.90;;;;;;5071802;28;20118;-77
2021/09/20 12:15:53;;;;;;;11.68;9.07;;;19.40;99.90;;;;;;5069288;28;20036;-77
2021/09/20 12:18:23;;;;;;;13.73;10.32;;;19.40;99.90;;;;;;5070215;28;20103;-77
2021/09/20 12:20:51;;;;;;;11.93;9.10;;;19.30;99.90;;;;;;5069761;28;20055;-76
2021/09/20 12:23:26;;;;;;;11.40;9.82;;;19.50;99.90;;;;;;5074368;28;20021;-77
2021/09/20 12:25:56;;;;;;;12.05;10.15;;;19.60;99.90;;;;;;5073478;28;20047;-76
2021/09/20 12:28:30;;;;;;;10.70;9.60;;;19.50;99.90;;;;;;5077122;28;20054;-76
2021/09/20 12:30:56;;;;;;;11.65;9.95;;;19.40;99.90;;;;;;5070379;28;20081;-77
2021/09/20 12:33:22;;;;;;;11.02;9.18;;;19.30;99.90;;;;;;5073597;28;20111;-77